Bookmark and Share
Track history (hours):
 

Cotes De Bretagne

Last reported at 2014-Apr-24 04:32 UTC. Time now 2014-Apr-24 06:07 UTC.
Position N 46°43' W 002°13'.

Length 75 m; draft 4.1 m.

Type: Dredging. MMSI: 227003850.

NotesDate/timePositionNaut miles runAvg speedWind from/ knotsBaromVisibWave heightAir tempDewpointWater temp
2014-Apr-24 04:32N 46°43' W 002°13'9 9.3
2014-Apr-24 03:33N 46°35' W 002°05'9 9.2
2014-Apr-24 02:33N 46°28' W 001°58'9 9.0
2014-Apr-24 01:33N 46°20' W 001°51'9 8.7
2014-Apr-24 00:33N 46°13' W 001°43'4 0.9
2014-Apr-23 20:06N 46°10' W 001°40'611.1
2014-Apr-23 19:33N 46°15' W 001°45'1111.1
2014-Apr-23 18:33N 46°24' W 001°54'1110.8
2014-Apr-23 17:33N 46°33' W 002°03'1110.6
2014-Apr-23 16:33N 46°42' W 002°12'29 2.8
2014-Apr-23 06:04N 47°11' W 002°19'0 0.0
2014-Apr-23 05:31N 47°11' W 002°19'30 2.2
2014-Apr-22 15:32N 47°21' W 003°01'1010.7
2014-Apr-22 14:33N 47°26' W 003°15'1110.6
2014-Apr-22 13:33N 47°32' W 003°27'  
2014-Apr-19 12:34N 47°34' W 003°31'10 9.9
2014-Apr-19 11:33N 47°28' W 003°19'1110.6
2014-Apr-19 10:29N 47°22' W 003°05'3 0.3
2014-Apr-19 00:33N 47°20' W 003°00'9 9.1
2014-Apr-18 23:33N 47°25' W 003°12'9 9.5
2014-Apr-18 22:34N 47°30' W 003°24'37 5.3
2014-Apr-18 15:33N 47°53' W 004°07'27 7.9
2014-Apr-18 12:08N 47°36' W 003°36'6 9.9
2014-Apr-18 11:33N 47°33' W 003°29'10 9.9
2014-Apr-18 10:33N 47°27' W 003°17'43 7.1
2014-Apr-18 04:30N 47°06' W 002°21'0 0.3
2014-Apr-18 03:29N 47°06' W 002°21'31 7.9
2014-Apr-17 23:32N 47°20' W 003°02'1010.0
2014-Apr-17 22:34N 47°25' W 003°14'1110.5
2014-Apr-17 21:33N 47°31' W 003°27'33 4.7
2014-Apr-17 14:33N 47°51' W 004°06'27 5.3
2014-Apr-17 09:33N 47°35' W 003°34'10 9.7
2014-Apr-17 08:34N 47°29' W 003°23'1010.0
2014-Apr-17 07:33N 47°24' W 003°10'9 9.4
2014-Apr-17 06:33N 47°19' W 002°59'9 9.3
2014-Apr-17 05:33N 47°12' W 002°50'10 9.2
2014-Apr-17 04:29N 47°04' W 002°40'20 9.1
2014-Apr-17 02:16N 46°49' W 002°20'7 9.1
2014-Apr-17 01:33N 46°44' W 002°14'10 9.6
2014-Apr-17 00:33N 46°36' W 002°06'10 9.5
2014-Apr-16 23:33N 46°28' W 001°59'10 9.7
2014-Apr-16 22:33N 46°21' W 001°50'10 9.7
2014-Apr-16 21:34N 46°13' W 001°42'4 1.0
2014-Apr-16 17:25N 46°10' W 001°38'1010.9
2014-Apr-16 16:33N 46°18' W 001°44'1110.7
2014-Apr-16 15:33N 46°29' W 001°47'75 4.4
2014-Apr-15 22:33N 47°21' W 003°05'9 9.0
2014-Apr-15 21:33N 47°26' W 003°16'10 9.7
2014-Apr-15 20:33N 47°32' W 003°28'19 1.9
2014-Apr-15 10:33N 47°44' W 003°49'20 9.9
2014-Apr-15 08:34N 47°31' W 003°26'1110.8
2014-Apr-15 07:34N 47°25' W 003°13'6 0.6
2014-Apr-14 20:30N 47°21' W 003°06'910.0
2014-Apr-14 19:34N 47°27' W 003°17'1110.8
2014-Apr-14 18:33N 47°33' W 003°30'3 0.3
2014-Apr-14 08:33N 47°35' W 003°33'10 9.7
2014-Apr-14 07:33N 47°29' W 003°22'  

Dump ship's entire track history

sailing weather and tide predictions

Cotes De Bretagne — FW3973 — position and weather